createdAt,value
2022-08-04T00:02:16.666Z,28.19
2022-08-04T00:05:01.636Z,28.19
2022-08-04T00:08:22.254Z,28.04
2022-08-04T00:10:55.144Z,28.06
2022-08-04T00:13:32.753Z,28.01
2022-08-04T00:16:12.382Z,28.02
2022-08-04T00:19:01.565Z,27.89
2022-08-04T00:21:31.461Z,28.00
2022-08-04T00:24:12.201Z,27.85
2022-08-04T00:26:41.561Z,27.95
2022-08-04T00:29:09.144Z,27.85
2022-08-04T00:31:56.403Z,27.86
2022-08-04T00:34:31.472Z,27.57
2022-08-04T00:36:59.594Z,27.71
2022-08-04T00:39:27.981Z,27.77
2022-08-04T00:42:31.401Z,27.65
2022-08-04T00:46:15.743Z,27.49
2022-08-04T00:49:30.116Z,27.65
2022-08-04T00:52:33.762Z,27.49
2022-08-04T00:55:53.310Z,27.43
2022-08-04T00:58:55.460Z,27.32
2022-08-04T01:02:17.555Z,27.30
2022-08-04T01:05:43.676Z,27.31
2022-08-04T01:08:49.520Z,27.25
2022-08-04T01:12:32.313Z,27.35
2022-08-04T01:15:59.884Z,27.24
2022-08-04T01:19:23.164Z,27.17
2022-08-04T01:22:33.418Z,27.08
2022-08-04T01:25:34.213Z,27.05
2022-08-04T01:28:58.407Z,27.15
2022-08-04T01:32:20.998Z,27.15
2022-08-04T01:35:46.464Z,27.21
2022-08-04T01:38:41.025Z,27.07
2022-08-04T01:41:14.998Z,27.12
2022-08-04T01:43:46.692Z,27.06
2022-08-04T01:46:18.074Z,26.96
2022-08-04T01:48:53.603Z,26.99
2022-08-04T01:51:24.517Z,26.97
2022-08-04T01:53:51.904Z,26.92
2022-08-04T01:56:20.811Z,26.92
2022-08-04T01:58:49.388Z,26.81
2022-08-04T02:01:16.784Z,26.85
2022-08-04T02:04:19.434Z,26.82
2022-08-04T02:07:13.615Z,26.81
2022-08-04T02:10:44.478Z,26.77
2022-08-04T02:13:43.926Z,26.64
2022-08-04T02:16:52.437Z,26.67
2022-08-04T02:20:16.099Z,26.75
2022-08-04T02:23:14.513Z,26.71
2022-08-04T02:25:55.749Z,26.71
2022-08-04T02:28:48.547Z,26.71
2022-08-04T02:31:33.368Z,26.77
2022-08-04T02:34:48.820Z,26.67
2022-08-04T02:37:19.997Z,26.50
2022-08-04T02:39:53.020Z,26.58
2022-08-04T02:42:22.645Z,26.64
2022-08-04T02:44:56.912Z,26.46
2022-08-04T02:48:08.096Z,26.49
2022-08-04T02:50:28.576Z,26.38
2022-08-04T02:53:00.585Z,26.35
2022-08-04T02:55:30.491Z,26.40
2022-08-04T02:58:02.045Z,26.27
2022-08-04T03:00:30.389Z,26.25
2022-08-04T03:03:34.499Z,26.24
2022-08-04T03:06:11.384Z,26.25
2022-08-04T03:09:37.497Z,26.20
2022-08-04T03:13:05.192Z,26.12
2022-08-04T03:16:09.781Z,26.10
2022-08-04T03:19:19.587Z,26.00
2022-08-04T03:23:12.536Z,25.99
2022-08-04T03:26:26.501Z,25.81
2022-08-04T03:29:55.385Z,25.84
2022-08-04T03:32:37.346Z,25.92
2022-08-04T03:36:05.795Z,25.83
2022-08-04T03:39:58.665Z,25.92
2022-08-04T03:43:00.045Z,25.63
2022-08-04T03:46:29.724Z,25.58
2022-08-04T03:49:36.459Z,25.62
2022-08-04T03:52:58.808Z,25.65
2022-08-04T03:56:40.232Z,25.59
2022-08-04T04:00:19.635Z,25.51
2022-08-04T04:03:29.135Z,25.54
2022-08-04T04:07:11.384Z,25.48
2022-08-04T04:10:29.022Z,25.49
2022-08-04T04:13:46.154Z,25.54
2022-08-04T04:16:50.821Z,25.38
2022-08-04T04:19:47.856Z,25.46
2022-08-04T04:22:42.200Z,25.48
2022-08-04T04:25:46.893Z,25.33
2022-08-04T04:29:14.342Z,25.24
2022-08-04T04:32:18.692Z,25.34
2022-08-04T04:35:14.472Z,25.34
2022-08-04T04:38:38.197Z,25.22
2022-08-04T04:41:30.790Z,25.22
2022-08-04T04:44:56.004Z,25.22
2022-08-04T04:48:07.384Z,25.33
2022-08-04T04:51:29.509Z,25.22
2022-08-04T04:54:30.705Z,25.16
2022-08-04T04:57:17.889Z,25.36
2022-08-04T05:00:12.215Z,25.15
2022-08-04T05:03:24.022Z,25.28
2022-08-04T05:06:54.637Z,25.42
2022-08-04T05:10:29.311Z,25.34
2022-08-04T05:14:38.055Z,25.34
2022-08-04T05:17:03.188Z,25.42
2022-08-04T05:19:52.176Z,25.43
2022-08-04T05:22:56.428Z,25.47
2022-08-04T05:25:36.176Z,25.52
2022-08-04T05:28:39.625Z,25.54
2022-08-04T05:31:28.365Z,25.42
2022-08-04T05:34:20.370Z,25.43
2022-08-04T05:36:58.835Z,25.58
2022-08-04T05:39:34.618Z,25.49
2022-08-04T05:42:05.044Z,25.67
2022-08-04T05:44:36.859Z,25.64
2022-08-04T05:47:05.438Z,25.59
2022-08-04T05:49:34.733Z,25.62
2022-08-04T05:52:05.028Z,25.73
2022-08-04T05:54:34.907Z,25.79
2022-08-04T05:57:08.586Z,25.70
2022-08-04T05:59:42.806Z,25.80
2022-08-04T06:02:11.411Z,25.87
2022-08-04T06:04:45.267Z,25.93
2022-08-04T06:07:17.109Z,26.06
2022-08-04T06:09:44.914Z,26.03
2022-08-04T06:12:23.332Z,26.00
2022-08-04T06:14:55.119Z,26.12
2022-08-04T06:19:57.202Z,25.96
2022-08-04T06:20:36.387Z,26.08
2022-08-04T06:23:18.561Z,26.22
2022-08-04T06:25:56.908Z,26.24
2022-08-04T06:28:26.268Z,26.26
2022-08-04T06:30:55.419Z,26.31
2022-08-04T06:33:27.808Z,26.30
2022-08-04T06:35:58.268Z,26.41
2022-08-04T06:38:30.032Z,26.59
2022-08-04T06:40:59.160Z,26.60
2022-08-04T06:43:32.440Z,26.54
2022-08-04T06:46:10.842Z,26.66
2022-08-04T06:48:39.505Z,26.74
2022-08-04T06:51:25.333Z,26.71
2022-08-04T06:53:54.837Z,26.70
2022-08-04T06:56:25.076Z,26.81
2022-08-04T06:58:55.773Z,26.72
2022-08-04T07:01:25.731Z,26.97
2022-08-04T07:03:53.409Z,27.11
2022-08-04T07:06:25.457Z,27.05
2022-08-04T07:08:54.390Z,27.13
2022-08-04T07:11:22.236Z,27.16
2022-08-04T07:13:50.353Z,27.33
2022-08-04T07:16:20.684Z,27.24
2022-08-04T07:18:58.099Z,27.38
2022-08-04T07:21:39.486Z,27.55
2022-08-04T07:24:07.252Z,27.56
2022-08-04T07:26:34.954Z,27.44
2022-08-04T07:29:03.030Z,27.56
2022-08-04T07:31:33.736Z,27.81
2022-08-04T07:34:17.786Z,27.71
2022-08-04T07:36:57.851Z,27.88
2022-08-04T07:39:31.510Z,27.74
2022-08-04T07:42:03.569Z,27.92
2022-08-04T07:44:34.935Z,27.79
2022-08-04T07:47:08.277Z,28.18
2022-08-04T07:49:55.656Z,28.05
2022-08-04T07:52:26.233Z,28.14
2022-08-04T07:54:54.528Z,28.20
2022-08-04T07:57:40.162Z,28.37
2022-08-04T08:00:14.270Z,28.45
2022-08-04T08:02:45.723Z,28.42
2022-08-04T08:05:17.876Z,28.70
2022-08-04T08:07:54.506Z,28.46
2022-08-04T08:10:24.247Z,28.64
2022-08-04T08:12:53.703Z,28.54
2022-08-04T08:15:22.381Z,28.67
2022-08-04T08:17:59.657Z,28.62
2022-08-04T08:20:31.888Z,28.74
2022-08-04T08:23:04.384Z,28.69
2022-08-04T08:25:33.778Z,29.05
2022-08-04T08:28:05.192Z,28.88
2022-08-04T08:30:34.686Z,28.99
2022-08-04T08:33:09.449Z,29.13
2022-08-04T08:36:19.835Z,29.28
2022-08-04T08:39:34.835Z,29.41
2022-08-04T08:44:06.034Z,29.72
2022-08-04T08:47:58.512Z,29.79
2022-08-04T08:51:20.231Z,29.92
2022-08-04T08:55:17.984Z,29.92
2022-08-04T08:58:32.470Z,30.14
2022-08-04T09:02:12.429Z,30.30
2022-08-04T09:05:27.129Z,30.42
2022-08-04T09:08:56.189Z,30.48
2022-08-04T09:11:35.149Z,30.53
2022-08-04T09:14:50.310Z,30.59
2022-08-04T09:18:22.655Z,30.67
2022-08-04T09:21:32.190Z,30.72
2022-08-04T09:24:36.240Z,30.88
2022-08-04T09:27:20.741Z,30.83
2022-08-04T09:30:10.455Z,30.93
2022-08-04T09:33:45.006Z,31.08
2022-08-04T09:36:53.594Z,31.10
2022-08-04T09:40:55.153Z,31.19
2022-08-04T09:44:52.475Z,31.31
2022-08-04T09:47:40.354Z,31.34
2022-08-04T09:50:40.022Z,31.44
2022-08-04T09:53:53.769Z,31.33
2022-08-04T09:56:57.189Z,31.55
2022-08-04T10:00:11.253Z,31.63
2022-08-04T10:02:56.400Z,31.71
2022-08-04T10:06:19.350Z,31.83
2022-08-04T10:09:46.405Z,31.94
2022-08-04T10:12:25.214Z,32.05
2022-08-04T10:15:11.653Z,32.13
2022-08-04T10:18:18.352Z,32.19
2022-08-04T10:21:58.988Z,32.31
2022-08-04T10:25:02.225Z,32.34
2022-08-04T10:27:43.421Z,32.55
2022-08-04T10:30:14.688Z,32.76
2022-08-04T10:33:23.609Z,32.92
2022-08-04T10:36:10.730Z,33.01
2022-08-04T10:39:43.378Z,33.19
2022-08-04T10:42:30.759Z,33.28
2022-08-04T10:45:46.848Z,33.37
2022-08-04T10:48:55.468Z,33.43
2022-08-04T10:51:58.004Z,33.61
2022-08-04T10:55:16.020Z,33.51
2022-08-04T10:58:01.013Z,33.79
2022-08-04T11:00:35.729Z,33.92
2022-08-04T11:03:40.809Z,34.10
2022-08-04T11:06:09.844Z,34.19
2022-08-04T11:08:50.597Z,34.35
2022-08-04T11:12:01.691Z,34.38
2022-08-04T11:15:07.703Z,34.44
2022-08-04T11:17:49.518Z,34.61
2022-08-04T11:20:37.015Z,34.84
2022-08-04T11:23:14.131Z,34.88
2022-08-04T11:26:29.165Z,34.81
2022-08-04T11:29:40.618Z,35.13
2022-08-04T11:32:37.657Z,35.34
2022-08-04T11:35:27.885Z,35.42
2022-08-04T11:39:11.363Z,35.64
2022-08-04T11:42:07.929Z,35.78
2022-08-04T11:45:11.208Z,35.85
2022-08-04T11:48:33.718Z,36.00
2022-08-04T11:51:06.858Z,35.90
2022-08-04T11:53:40.699Z,36.15
2022-08-04T11:56:36.680Z,36.20
2022-08-04T11:59:05.867Z,36.49
2022-08-04T12:02:16.694Z,36.47
2022-08-04T12:05:06.181Z,36.62
2022-08-04T12:08:00.128Z,36.77
2022-08-04T12:11:14.420Z,36.98
2022-08-04T12:14:15.384Z,36.97
2022-08-04T12:17:04.805Z,37.07
2022-08-04T12:20:05.141Z,37.38
2022-08-04T12:22:52.734Z,37.31
2022-08-04T12:25:44.904Z,37.50
2022-08-04T12:29:06.883Z,37.58
2022-08-04T12:31:56.884Z,37.66
2022-08-04T12:35:31.981Z,37.62
2022-08-04T12:38:14.444Z,37.50
2022-08-04T12:40:51.936Z,37.90
2022-08-04T12:43:43.019Z,37.90
2022-08-04T12:46:31.421Z,38.18
2022-08-04T12:49:04.571Z,38.24
2022-08-04T12:52:07.779Z,38.47
2022-08-04T12:54:32.196Z,38.57
2022-08-04T12:57:01.361Z,38.52
2022-08-04T12:59:28.881Z,38.54
2022-08-04T13:02:10.616Z,38.53
2022-08-04T13:04:42.701Z,38.65
2022-08-04T13:07:25.501Z,38.57
2022-08-04T13:09:54.293Z,38.63
2022-08-04T13:12:32.355Z,38.82
2022-08-04T13:15:18.714Z,38.64
2022-08-04T13:18:14.824Z,38.88
2022-08-04T13:20:44.849Z,38.93
2022-08-04T13:23:21.514Z,39.26
2022-08-04T13:26:43.533Z,39.08
2022-08-04T13:28:49.724Z,39.31
2022-08-04T13:31:24.621Z,39.47
2022-08-04T13:34:02.793Z,39.25
2022-08-04T13:36:32.742Z,39.38
2022-08-04T13:39:21.821Z,39.47
2022-08-04T13:41:58.922Z,39.32
2022-08-04T13:44:37.177Z,39.63
2022-08-04T13:47:21.568Z,39.78
2022-08-04T13:50:15.830Z,39.66
2022-08-04T13:52:46.345Z,39.94
2022-08-04T13:55:37.265Z,39.89
2022-08-04T13:58:20.378Z,40.01
2022-08-04T14:01:00.541Z,40.06
2022-08-04T14:03:55.805Z,39.99
2022-08-04T14:06:44.861Z,39.71
2022-08-04T14:09:34.933Z,39.75
2022-08-04T14:12:38.086Z,39.91
2022-08-04T14:15:02.426Z,40.21
2022-08-04T14:17:30.784Z,40.22
2022-08-04T14:20:04.472Z,40.52
2022-08-04T14:22:36.964Z,40.38
2022-08-04T14:25:17.838Z,40.35
2022-08-04T14:27:56.609Z,40.20
2022-08-04T14:30:37.895Z,40.54
2022-08-04T14:34:02.510Z,40.44
2022-08-04T14:36:01.633Z,40.62
2022-08-04T14:38:58.389Z,40.59
2022-08-04T14:41:44.598Z,40.83
2022-08-04T14:44:11.936Z,40.85
2022-08-04T14:46:59.188Z,40.45
2022-08-04T14:49:27.600Z,40.78
2022-08-04T14:52:03.043Z,40.65
2022-08-04T14:54:35.309Z,40.95
2022-08-04T14:57:07.585Z,40.99
2022-08-04T15:00:01.664Z,40.86
2022-08-04T15:02:30.878Z,41.01
2022-08-04T15:04:59.212Z,40.99
2022-08-04T15:07:47.523Z,40.98
2022-08-04T15:10:15.690Z,41.28
2022-08-04T15:12:43.329Z,40.92
2022-08-04T15:15:36.035Z,40.84
2022-08-04T15:18:03.686Z,40.19
2022-08-04T15:20:32.556Z,40.13
2022-08-04T15:23:01.365Z,39.99
2022-08-04T15:25:32.929Z,39.72
2022-08-04T15:28:01.695Z,40.27
2022-08-04T15:30:30.667Z,40.21
2022-08-04T15:33:03.033Z,40.26
2022-08-04T15:35:38.708Z,40.20
2022-08-04T15:38:37.392Z,40.03
2022-08-04T15:41:22.455Z,40.06
2022-08-04T15:44:51.280Z,40.46
2022-08-04T15:47:19.074Z,40.53
2022-08-04T15:50:02.072Z,40.36
2022-08-04T15:52:32.036Z,40.69
2022-08-04T15:55:41.326Z,40.82
2022-08-04T15:58:17.123Z,40.77
2022-08-04T16:01:05.022Z,40.58
2022-08-04T16:03:57.999Z,40.84
2022-08-04T16:06:28.802Z,40.64
2022-08-04T16:09:05.293Z,40.76
2022-08-04T16:11:33.892Z,40.92
2022-08-04T16:14:01.412Z,40.75
2022-08-04T16:16:38.428Z,40.69
2022-08-04T16:19:39.581Z,40.42
2022-08-04T16:22:09.921Z,40.64
2022-08-04T16:24:42.767Z,40.64
2022-08-04T16:27:13.752Z,40.42
2022-08-04T16:29:49.461Z,40.42
2022-08-04T16:32:24.381Z,40.04
2022-08-04T16:35:17.869Z,39.55
2022-08-04T16:37:45.373Z,39.42
2022-08-04T16:40:43.552Z,39.53
2022-08-04T16:43:21.029Z,39.25
2022-08-04T16:45:53.893Z,39.34
2022-08-04T16:48:32.589Z,39.45
2022-08-04T16:51:14.423Z,38.85
2022-08-04T16:54:02.899Z,39.07
2022-08-04T16:56:35.327Z,38.86
2022-08-04T16:59:13.177Z,39.20
2022-08-04T17:01:50.822Z,39.05
2022-08-04T17:04:18.420Z,38.69
2022-08-04T17:06:46.809Z,38.61
2022-08-04T17:09:19.583Z,38.69
2022-08-04T17:11:48.483Z,38.86
2022-08-04T17:14:30.360Z,38.78
2022-08-04T17:17:02.164Z,38.50
2022-08-04T17:19:29.615Z,38.49
2022-08-04T17:22:07.236Z,38.26
2022-08-04T17:24:40.929Z,38.12
2022-08-04T17:28:09.679Z,38.01
2022-08-04T17:29:57.641Z,38.13
2022-08-04T17:32:25.373Z,38.10
2022-08-04T17:35:04.076Z,37.98
2022-08-04T17:37:39.315Z,37.95
2022-08-04T17:40:18.689Z,37.94
2022-08-04T17:43:03.188Z,37.65
2022-08-04T17:46:36.941Z,37.69
2022-08-04T17:49:17.909Z,37.75
2022-08-04T17:52:09.979Z,37.52
2022-08-04T17:54:43.290Z,37.56
2022-08-04T17:57:22.082Z,37.68
2022-08-04T17:59:59.329Z,37.49
2022-08-04T18:02:34.769Z,37.32
2022-08-04T18:05:11.328Z,37.17
2022-08-04T18:08:38.951Z,37.22
2022-08-04T18:10:52.302Z,37.20
2022-08-04T18:13:28.768Z,37.19
2022-08-04T18:16:14.583Z,37.12
2022-08-04T18:19:15.338Z,37.10
2022-08-04T18:22:00.457Z,36.92
2022-08-04T18:24:35.004Z,36.70
2022-08-04T18:27:06.208Z,36.53
2022-08-04T18:29:39.041Z,36.61
2022-08-04T18:32:09.730Z,36.35
2022-08-04T18:34:40.781Z,36.37
2022-08-04T18:37:40.804Z,36.11
2022-08-04T18:40:26.801Z,35.78
2022-08-04T18:42:59.988Z,35.55
2022-08-04T18:45:34.493Z,35.49
2022-08-04T18:48:14.539Z,35.58
2022-08-04T18:51:10.419Z,35.80
2022-08-04T18:53:35.090Z,36.13
2022-08-04T18:56:19.890Z,36.18
2022-08-04T18:58:54.348Z,36.27
2022-08-04T19:01:21.744Z,36.23
2022-08-04T19:03:58.099Z,36.27
2022-08-04T19:06:25.889Z,36.22
2022-08-04T19:08:53.665Z,36.23
2022-08-04T19:14:13.149Z,35.98
2022-08-04T19:16:46.017Z,35.89
2022-08-04T19:19:17.249Z,35.64
2022-08-04T19:24:34.553Z,34.91
2022-08-04T19:27:08.261Z,34.35
2022-08-04T19:29:40.636Z,34.13
2022-08-04T19:32:15.089Z,33.88
2022-08-04T19:34:48.409Z,33.62
2022-08-04T19:38:01.825Z,34.30
2022-08-04T19:40:12.309Z,34.54
2022-08-04T19:42:42.324Z,34.60
2022-08-04T19:45:15.973Z,34.62
2022-08-04T19:48:17.257Z,34.58
2022-08-04T19:50:33.716Z,34.58
2022-08-04T19:53:01.150Z,33.58
2022-08-04T19:55:37.205Z,34.33
2022-08-04T19:58:08.962Z,34.43
2022-08-04T20:00:39.408Z,34.42
2022-08-04T20:05:57.481Z,34.37
2022-08-04T20:08:29.912Z,34.34
2022-08-04T20:10:58.185Z,34.32
2022-08-04T20:13:37.427Z,34.29
2022-08-04T20:16:14.916Z,34.18
2022-08-04T20:18:59.525Z,34.21
2022-08-04T20:21:54.094Z,34.24
2022-08-04T20:24:39.861Z,34.27
2022-08-04T20:27:21.729Z,34.23
2022-08-04T20:29:55.591Z,34.15
2022-08-04T20:32:26.817Z,34.23
2022-08-04T20:34:57.573Z,34.11
2022-08-04T20:37:55.401Z,33.71
2022-08-04T20:40:15.369Z,33.82
2022-08-04T20:42:45.437Z,33.39
2022-08-04T20:45:16.478Z,33.22
2022-08-04T20:47:53.261Z,33.60
2022-08-04T20:50:28.392Z,33.62
2022-08-04T20:52:59.015Z,33.54
2022-08-04T20:55:29.501Z,33.48
2022-08-04T20:58:03.002Z,32.93
2022-08-04T21:00:32.036Z,32.95
2022-08-04T21:02:59.971Z,32.58
2022-08-04T21:05:28.341Z,32.04
2022-08-04T21:07:59.193Z,32.85
2022-08-04T21:10:28.069Z,32.06
2022-08-04T21:12:55.640Z,31.99
2022-08-04T21:15:58.381Z,32.42
2022-08-04T21:18:16.837Z,31.71
2022-08-04T21:20:44.583Z,31.70
2022-08-04T21:23:15.588Z,31.37
2022-08-04T21:25:43.519Z,31.75
2022-08-04T21:28:12.516Z,31.98
2022-08-04T21:30:52.931Z,32.23
2022-08-04T21:33:50.238Z,31.92
2022-08-04T21:36:13.904Z,32.09
2022-08-04T21:41:32.877Z,31.26
2022-08-04T21:44:00.718Z,31.77
2022-08-04T21:46:29.965Z,31.88
2022-08-04T21:48:58.364Z,31.57
2022-08-04T21:51:59.018Z,31.50
2022-08-04T21:54:21.313Z,31.88
2022-08-04T21:56:52.259Z,32.07
2022-08-04T21:59:23.729Z,31.90
2022-08-04T22:02:01.227Z,31.85
2022-08-04T22:04:30.930Z,31.81
2022-08-04T22:06:58.469Z,31.82
2022-08-04T22:09:38.752Z,31.80
2022-08-04T22:12:11.765Z,31.59
2022-08-04T22:14:40.273Z,31.61
2022-08-04T22:17:13.630Z,31.60
2022-08-04T22:19:55.840Z,31.51
2022-08-04T22:22:28.967Z,31.64
2022-08-04T22:25:12.345Z,31.60
2022-08-04T22:28:01.016Z,31.51
2022-08-04T22:30:37.699Z,31.40
2022-08-04T22:33:08.822Z,31.30
2022-08-04T22:35:49.054Z,31.15
2022-08-04T22:38:32.752Z,31.31
2022-08-04T22:41:13.642Z,31.31
2022-08-04T22:43:43.537Z,31.11
2022-08-04T22:46:24.725Z,30.99
2022-08-04T22:48:53.444Z,31.09
2022-08-04T22:51:22.992Z,31.08
2022-08-04T22:53:52.986Z,30.91
2022-08-04T22:56:37.394Z,30.96
2022-08-04T22:59:10.279Z,30.99
2022-08-04T23:01:59.584Z,30.84
2022-08-04T23:04:33.194Z,30.92
2022-08-04T23:07:09.238Z,30.82
2022-08-04T23:09:50.122Z,30.92
2022-08-04T23:12:26.229Z,31.08
2022-08-04T23:14:58.707Z,30.77
2022-08-04T23:17:28.574Z,30.78
2022-08-04T23:19:59.609Z,30.57
2022-08-04T23:22:41.271Z,30.52
2022-08-04T23:25:15.530Z,30.44
2022-08-04T23:27:50.549Z,30.55
2022-08-04T23:30:29.833Z,30.54
2022-08-04T23:32:58.467Z,30.50
2022-08-04T23:35:26.363Z,30.45
2022-08-04T23:37:56.037Z,30.64
2022-08-04T23:40:33.727Z,30.33
2022-08-04T23:43:12.200Z,30.28
2022-08-04T23:46:03.856Z,29.87
2022-08-04T23:48:38.881Z,29.70
2022-08-04T23:51:14.260Z,29.94
2022-08-04T23:54:02.335Z,29.86
2022-08-04T23:56:34.589Z,30.09
2022-08-04T23:59:04.240Z,29.97
